Item Display Status Serial CT Sensor

Mooring Depth: 1 m

 

Deployed Sensor

  • Serial Number: 8781
  • NDBC Property Number: 35211
  • Start Date: 12/6/2018 (14:09:16 Z)
  • End Date: Currently Active
Water Temperature [°C]     6 entries per hour
Showing data from 8/17/2019 (21:30:00 Z) to 8/16/2019 (00:00:01 Z)
Previous Next [ Day | 3-Days | 7-Days ]
First Last
Prev [ Day | 3-Days | 7-Days ] Next
First Last

Start Time:     :
End Time:     :     
Time (in GMT) :00 :50 :40 :30 :20 :10
Previous Next [ Day | 3-Days | 7-Days ]
First Last
Prev [ Day | 3-Days | 7-Days ] Next
First Last


123 => good data
MM => data is determined as missing
-- => data not received/configured
Back to Top Back to Top
8/17/2019 22:00 to 21:10 -- -- -- 27.415 27.419 27.426
8/17/2019 21:00 to 20:10 27.413 27.423 27.412 27.418 27.417 27.411
8/17/2019 20:00 to 19:10 27.419 27.406 27.408 27.412 27.399 27.400
8/17/2019 19:00 to 18:10 27.399 27.392 27.399 27.404 27.407 27.400
8/17/2019 18:00 to 17:10 27.382 27.375 27.385 27.396 -- 27.384
8/17/2019 17:00 to 16:10 27.386 27.391 27.380 27.375 27.388 27.395
8/17/2019 16:00 to 15:10 27.397 27.379 27.386 27.388 27.386 27.401
8/17/2019 15:00 to 14:10 27.396 27.394 27.409 27.394 27.408 27.406
8/17/2019 14:00 to 13:10 27.418 27.412 27.419 27.432 27.417 27.438
8/17/2019 13:00 to 12:10 27.442 27.439 27.447 27.452 27.439 27.431
8/17/2019 12:00 to 11:10 27.434 27.444 27.445 27.441 27.456 27.462
8/17/2019 11:00 to 10:10 27.461 27.445 27.454 27.471 27.472 27.464
8/17/2019 10:00 to 9:10 27.459 27.472 27.459 27.466 27.473 27.467
8/17/2019 09:00 to 8:10 27.471 27.456 27.468 27.500 27.473 27.482
8/17/2019 08:00 to 7:10 27.494 27.516 27.507 27.501 27.514 27.504
8/17/2019 07:00 to 6:10 27.507 27.520 27.517 27.515 27.515 27.516
8/17/2019 06:00 to 5:10 27.528 27.523 27.529 27.523 27.520 27.530
8/17/2019 05:00 to 4:10 27.529 27.524 27.537 27.545 27.526 27.543
8/17/2019 04:00 to 3:10 27.553 27.535 27.534 27.532 27.548 27.547
8/17/2019 03:00 to 2:10 27.538 27.557 27.564 27.558 27.571 27.575
8/17/2019 02:00 to 1:10 27.571 27.556 27.578 27.568 27.585 27.577
8/17/2019 01:00 to 0:10 27.583 27.575 27.593 27.578 27.581 27.573
8/17/2019 00:00 to 23:10 27.593 27.592 27.576 27.581 27.593 27.584
8/16/2019 23:00 to 22:10 27.591 27.598 27.596 27.593 27.594 27.605
8/16/2019 22:00 to 21:10 27.598 27.605 27.599 27.599 27.604 27.609
8/16/2019 21:00 to 20:10 27.611 27.612 27.615 27.603 27.618 27.617
8/16/2019 20:00 to 19:10 27.609 27.612 27.618 27.625 27.624 27.626
8/16/2019 19:00 to 18:10 27.631 27.613 27.609 27.603 27.606 27.604
8/16/2019 18:00 to 17:10 27.606 27.606 27.609 27.611 27.614 27.609
8/16/2019 17:00 to 16:10 27.607 27.602 27.599 27.591 27.599 27.595
8/16/2019 16:00 to 15:10 27.591 27.587 27.593 27.601 27.600 27.600
8/16/2019 15:00 to 14:10 27.595 27.605 27.598 27.599 27.602 27.590
8/16/2019 14:00 to 13:10 27.596 27.604 27.604 27.595 27.597 27.608
8/16/2019 13:00 to 12:10 27.612 27.588 27.604 27.606 27.601 27.612
8/16/2019 12:00 to 11:10 27.610 27.618 27.608 27.611 27.599 27.613
8/16/2019 11:00 to 10:10 27.602 27.606 27.599 27.609 27.603 27.598
8/16/2019 10:00 to 9:10 27.618 27.607 27.606 27.607 27.614 27.617
8/16/2019 09:00 to 8:10 27.619 27.613 27.607 27.605 27.622 27.615
8/16/2019 08:00 to 7:10 27.623 27.635 27.637 27.639 27.637 27.648
8/16/2019 07:00 to 6:10 27.638 27.651 27.656 27.674 27.674 27.680
8/16/2019 06:00 to 5:10 27.659 27.646 27.627 27.634 27.636 27.628
8/16/2019 05:00 to 4:10 27.630 27.634 27.644 27.647 27.639 27.648
8/16/2019 04:00 to 3:10 27.635 -- 27.652 27.647 27.647 27.655
8/16/2019 03:00 to 2:10 27.640 27.647 27.644 27.663 27.659 27.666
8/16/2019 02:00 to 1:10 27.650 27.662 27.662 27.658 27.650 27.642
8/16/2019 01:00 to 0:10 27.652 27.658 27.647 27.641 27.663 27.663

 

 

 

Conductivity [S/m]     6 entries per hour
Showing data from 10/16/2019 (15:00:00 Z) to 10/15/2019 (00:00:01 Z)
Previous Next [ Day | 3-Days | 7-Days ]
First Last
Prev [ Day | 3-Days | 7-Days ] Next
First Last

Start Time:     :
End Time:     :     
Time (in GMT) :00 :50 :40 :30 :20 :10
Previous Next [ Day | 3-Days | 7-Days ]
First Last
Prev [ Day | 3-Days | 7-Days ] Next
First Last


123 => good data
MM => data is determined as missing
-- => data not received/configured
Back to Top Back to Top
10/16/2019 15:00 to 14:10 5.35908 5.36016 5.36026 5.35961 5.36013 5.35948
10/16/2019 14:00 to 13:10 5.36068 5.35883 5.36042 5.36029 5.35998 5.36011
10/16/2019 13:00 to 12:10 5.36067 5.36044 5.36007 5.36045 5.36051 5.35991
10/16/2019 12:00 to 11:10 5.36059 5.36040 5.36044 5.36060 5.36075 5.36023
10/16/2019 11:00 to 10:10 5.36109 5.35990 5.36131 5.36168 5.36165 5.36001
10/16/2019 10:00 to 9:10 5.36138 5.36169 5.36213 5.36132 5.36204 5.36143
10/16/2019 09:00 to 8:10 5.36226 5.36182 5.36139 5.36310 5.36285 5.36158
10/16/2019 08:00 to 7:10 5.36118 5.36321 5.36156 5.36151 5.36330 5.36235
10/16/2019 07:00 to 6:10 5.36391 5.36488 5.36488 5.36638 5.36747 5.36284
10/16/2019 06:00 to 5:10 5.36758 5.36759 5.36913 5.36955 5.36938 5.36656
10/16/2019 05:00 to 4:10 5.36989 5.36985 5.36982 5.37002 5.36939 5.36981
10/16/2019 04:00 to 3:10 5.37089 5.37178 5.37033 5.37126 5.37164 5.37012
10/16/2019 03:00 to 2:10 5.37179 5.37169 5.37116 5.37275 5.37374 5.37188
10/16/2019 02:00 to 1:10 5.37436 5.37487 5.37399 5.37288 5.37342 5.37367
10/16/2019 01:00 to 0:10 5.37443 5.37368 5.37487 5.37626 5.37731 5.37304
10/16/2019 00:00 to 23:10 5.37735 5.37970 5.37880 5.38070 5.37999 5.37756
10/15/2019 23:00 to 22:10 5.37973 5.38009 5.37953 5.37850 5.37976 5.38044
10/15/2019 22:00 to 21:10 5.37999 5.38382 5.38310 5.38661 5.38400 5.37910
10/15/2019 21:00 to 20:10 5.38432 5.38569 5.38744 5.38432 5.38481 5.38246
10/15/2019 20:00 to 19:10 5.38669 5.38479 5.38270 5.38349 5.38392 5.38308
10/15/2019 19:00 to 18:10 5.38449 5.38983 5.38668 5.38435 5.38214 5.38418
10/15/2019 18:00 to 17:10 5.37691 5.37811 5.37738 5.37696 5.37433 5.37858
10/15/2019 17:00 to 16:10 5.37501 5.37377 5.37323 5.37204 5.37089 5.37533
10/15/2019 16:00 to 15:10 5.36997 5.36927 5.36871 5.36854 5.36791 5.37029
10/15/2019 15:00 to 14:10 5.36757 5.36763 5.36759 5.36766 5.36679 5.36772
10/15/2019 14:00 to 13:10 5.36677 5.36594 5.36741 5.36669 5.36686 5.36681
10/15/2019 13:00 to 12:10 5.36616 5.36570 5.36583 5.36675 5.36514 5.36690
10/15/2019 12:00 to 11:10 5.36575 5.36493 5.36655 5.36479 5.36516 5.36516
10/15/2019 11:00 to 10:10 5.36476 5.36447 5.36345 5.36578 5.36383 5.36447
10/15/2019 10:00 to 9:10 5.36361 5.36386 5.36421 5.36457 5.36375 5.36449
10/15/2019 09:00 to 8:10 5.36475 5.36547 5.36586 5.36455 5.36539 5.36446
10/15/2019 08:00 to 7:10 5.36604 5.36669 5.36628 5.36719 5.36691 5.36617
10/15/2019 07:00 to 6:10 5.36669 5.36796 5.36849 5.36818 5.36836 5.36744
10/15/2019 06:00 to 5:10 5.37044 5.37097 5.37342 5.37571 5.37536 5.36814
10/15/2019 05:00 to 4:10 5.38031 5.38214 5.38274 5.38295 5.38272 5.37895
10/15/2019 04:00 to 3:10 5.38297 5.38259 5.38135 5.38007 5.38081 5.38267
10/15/2019 03:00 to 2:10 5.38005 5.37992 5.38167 5.38249 5.38387 5.37946
10/15/2019 02:00 to 1:10 5.38469 5.38474 5.38419 5.38423 5.38441 5.38420
10/15/2019 01:00 to 0:10 5.38597 5.38672 5.38601 5.38906 5.38909 5.38520

 

 

 

Salinity [psu]     6 entries per hour
Showing data from 10/16/2019 (15:00:00 Z) to 10/15/2019 (00:00:01 Z)
Previous Next [ Day | 3-Days | 7-Days ]
First Last
Prev [ Day | 3-Days | 7-Days ] Next
First Last

Start Time:     :
End Time:     :     
Time (in GMT) :00 :50 :40 :30 :20 :10
Previous Next [ Day | 3-Days | 7-Days ]
First Last
Prev [ Day | 3-Days | 7-Days ] Next
First Last


123 => good data
MM => data is determined as missing
-- => data not received/configured
Back to Top Back to Top
10/16/2019 15:00 to 14:10 33.57 33.57 33.56 33.56 33.56 33.57
10/16/2019 14:00 to 13:10 33.56 33.56 33.56 33.56 33.56 33.56
10/16/2019 13:00 to 12:10 33.56 33.56 33.56 33.56 33.56 33.56
10/16/2019 12:00 to 11:10 33.56 33.55 33.56 33.55 33.56 33.56
10/16/2019 11:00 to 10:10 33.56 33.56 33.56 33.56 33.56 33.56
10/16/2019 10:00 to 9:10 33.56 33.56 33.56 33.56 33.56 33.56
10/16/2019 09:00 to 8:10 33.56 33.56 33.56 33.56 33.56 33.55
10/16/2019 08:00 to 7:10 33.56 33.56 33.56 33.56 33.56 33.56
10/16/2019 07:00 to 6:10 33.56 33.56 33.56 33.56 33.56 33.56
10/16/2019 06:00 to 5:10 33.56 33.57 33.56 33.56 33.56 33.57
10/16/2019 05:00 to 4:10 33.57 33.57 33.57 33.57 33.57 33.56
10/16/2019 04:00 to 3:10 33.57 33.57 33.57 33.57 33.57 33.57
10/16/2019 03:00 to 2:10 33.57 33.57 33.57 33.57 33.57 33.57
10/16/2019 02:00 to 1:10 33.57 33.57 33.57 33.57 33.57 33.57
10/16/2019 01:00 to 0:10 33.57 33.57 33.57 33.57 33.57 33.58
10/16/2019 00:00 to 23:10 33.57 33.57 33.57 33.57 33.57 33.57
10/15/2019 23:00 to 22:10 33.57 33.58 33.58 33.58 33.58 33.58
10/15/2019 22:00 to 21:10 33.58 33.58 33.58 33.58 33.58 33.58
10/15/2019 21:00 to 20:10 33.58 33.58 33.58 33.59 33.58 33.58
10/15/2019 20:00 to 19:10 33.59 33.60 33.59 33.59 33.59 33.58
10/15/2019 19:00 to 18:10 33.59 33.59 33.59 33.59 33.59 33.59
10/15/2019 18:00 to 17:10 33.59 33.59 33.59 33.59 33.59 33.59
10/15/2019 17:00 to 16:10 33.59 33.59 33.59 33.59 33.60 33.59
10/15/2019 16:00 to 15:10 33.59 33.60 33.60 33.60 33.60 33.59
10/15/2019 15:00 to 14:10 33.59 33.60 33.60 33.60 33.60 33.60
10/15/2019 14:00 to 13:10 33.60 33.60 33.60 33.60 33.60 33.60
10/15/2019 13:00 to 12:10 33.60 33.60 33.60 33.60 33.60 33.60
10/15/2019 12:00 to 11:10 33.60 33.60 33.60 33.60 33.60 33.61
10/15/2019 11:00 to 10:10 33.60 33.60 33.60 33.60 33.60 33.60
10/15/2019 10:00 to 9:10 33.60 33.60 33.60 33.60 33.61 33.60
10/15/2019 09:00 to 8:10 33.61 33.61 33.61 33.61 33.61 33.60
10/15/2019 08:00 to 7:10 33.61 33.61 33.61 33.61 33.61 33.61
10/15/2019 07:00 to 6:10 33.62 33.62 33.62 33.62 33.62 33.61
10/15/2019 06:00 to 5:10 33.62 33.63 33.63 33.64 33.64 33.63
10/15/2019 05:00 to 4:10 33.66 33.65 33.65 33.65 33.66 33.65
10/15/2019 04:00 to 3:10 33.66 33.65 33.66 33.65 33.65 33.66
10/15/2019 03:00 to 2:10 33.65 33.66 33.65 33.65 33.65 33.65
10/15/2019 02:00 to 1:10 33.65 33.65 33.65 33.65 33.65 33.65
10/15/2019 01:00 to 0:10 33.65 33.65 33.64 33.65 33.65 33.65